Aviation Digital Data Service (ADDS)

Output produced by METARs form (0212 UTC 11 December 2016)
found at http://aviationweather.gov/adds/metars/
 
KEWN 102325Z 1100/1124 00000KT P6SM SKC 
     FM111600 10005KT P6SM SKC